Ambridge, Pennsylvania
Current Conditions -  °F | °C
As of 10:51 PM on Friday 19 Dec 2014 (Local Time) from KPIT Reporting Station
Overcast Overcast  
Wind Chill: 24°   Ceiling: 2600
Heat Index: 29°   Visibility: 10mi
Dew Point: 21°   Wind: 5mph
Humidity: 72%   Direction: 300°WNW
Pressure: 30.25"   Gusts: NA
Location:  40.59°N, 80.23°W
Report Text: KPIT 200351Z 30004KT 10SM OVC026 M02/M06 A3025 RMK AO2 SLP266 T10171061
Loading
Personal Weather Stations






























Interactive Weather Map New forecast layout! Learn more

10-Day Weather Forecast

Advertisements
Track Severe Weather on mobile